Time;durP1;ratioP1;P1;durP2;ratioP2;P2;SDS_P1;SDS_P2;PMS_P1;PMS_P2;Temp;Humidity;BMP_temperature;BMP_pressure;BME280_temperature;BME280_humidity;BME280_pressure;Samples;Min_cycle;Max_cycle;Signal;HPM_P1;HPM_P2
2023/12/31 00:00:56;;;;;;;2.20;1.02;;;;;;;6.92;100.00;97679.66;5004510;28;20077;-73
2023/12/31 00:03:23;;;;;;;2.40;1.13;;;;;;;6.81;100.00;97699.47;5003286;28;20054;-73
2023/12/31 00:05:49;;;;;;;1.90;1.10;;;;;;;6.84;100.00;97717.47;5005865;28;20060;-73
2023/12/31 00:08:16;;;;;;;3.60;1.35;;;;;;;6.82;100.00;97718.53;4987548;28;20074;-73
2023/12/31 00:10:43;;;;;;;1.38;0.98;;;;;;;6.82;100.00;97716.75;4995856;28;20064;-72
2023/12/31 00:13:10;;;;;;;2.72;1.30;;;;;;;6.86;100.00;97716.53;4985453;28;20042;-73
2023/12/31 00:15:36;;;;;;;3.55;1.40;;;;;;;6.80;100.00;97702.19;4981646;28;20121;-73
2023/12/31 00:18:03;;;;;;;2.10;1.10;;;;;;;6.81;100.00;97712.47;5003631;28;20073;-72
2023/12/31 00:20:30;;;;;;;2.15;1.13;;;;;;;6.86;100.00;97714.75;4982520;28;20129;-71
2023/12/31 00:22:57;;;;;;;2.83;1.50;;;;;;;6.79;100.00;97700.53;5003571;28;21425;-72
2023/12/31 00:25:23;;;;;;;1.35;1.10;;;;;;;6.84;100.00;97720.06;5004450;28;20053;-72
2023/12/31 00:27:50;;;;;;;2.45;1.00;;;;;;;6.82;100.00;97703.75;4996472;28;20089;-72
2023/12/31 00:30:17;;;;;;;1.55;1.08;;;;;;;6.75;100.00;97714.69;4987737;28;20064;-72
2023/12/31 00:32:44;;;;;;;2.65;1.10;;;;;;;6.75;100.00;97720.72;5000331;28;20046;-72
2023/12/31 00:35:10;;;;;;;1.55;0.95;;;;;;;6.82;100.00;97734.13;5001826;28;20073;-72
2023/12/31 00:37:37;;;;;;;1.85;1.10;;;;;;;6.65;100.00;97720.50;5008920;28;20057;-72
2023/12/31 00:40:05;;;;;;;1.85;1.00;;;;;;;6.70;100.00;97733.19;5008461;28;20438;-72
2023/12/31 00:42:32;;;;;;;2.25;1.20;;;;;;;6.77;100.00;97734.44;5017554;28;20132;-72
2023/12/31 00:44:59;;;;;;;1.30;1.00;;;;;;;6.86;100.00;97740.75;4990802;28;20124;-72
2023/12/31 00:47:25;;;;;;;3.38;1.40;;;;;;;6.83;100.00;97730.56;4999880;28;20065;-72
2023/12/31 00:49:52;;;;;;;1.60;1.00;;;;;;;6.95;100.00;97740.09;4998001;28;20114;-72
2023/12/31 00:52:19;;;;;;;1.67;1.10;;;;;;;6.97;100.00;97745.22;4996497;28;20060;-72
2023/12/31 00:54:47;;;;;;;2.55;1.17;;;;;;;6.81;100.00;97727.25;4995057;28;20148;-71
2023/12/31 00:57:13;;;;;;;3.75;1.20;;;;;;;6.91;100.00;97730.88;4997945;28;20046;-71
2023/12/31 00:59:40;;;;;;;9.38;1.80;;;;;;;6.88;100.00;97728.47;4998099;28;20471;-71
2023/12/31 01:02:07;;;;;;;2.97;1.30;;;;;;;6.89;100.00;97737.09;5010525;28;20053;-71
2023/12/31 01:04:35;;;;;;;12.13;2.47;;;;;;;6.80;100.00;97728.22;4998051;28;20103;-72
2023/12/31 01:07:02;;;;;;;11.27;2.38;;;;;;;6.61;100.00;97728.66;5017164;28;20056;-71
2023/12/31 01:09:28;;;;;;;11.88;2.40;;;;;;;6.54;100.00;97724.81;5010592;28;20096;-71
2023/12/31 01:11:55;;;;;;;8.93;2.40;;;;;;;6.71;100.00;97714.06;5001917;28;20512;-71
2023/12/31 01:14:22;;;;;;;7.25;1.95;;;;;;;6.81;100.00;97717.66;4979329;28;20478;-71
2023/12/31 01:16:48;;;;;;;7.15;2.05;;;;;;;6.76;100.00;97713.72;4995008;28;20100;-71
2023/12/31 01:19:16;;;;;;;7.88;1.83;;;;;;;6.64;100.00;97705.88;4987986;28;20046;-71
2023/12/31 01:21:43;;;;;;;7.13;2.00;;;;;;;6.69;100.00;97709.91;5001440;28;20050;-71
2023/12/31 01:24:09;;;;;;;8.27;1.80;;;;;;;6.62;100.00;97697.34;4999320;28;20058;-71
2023/12/31 01:26:36;;;;;;;6.68;1.80;;;;;;;6.55;100.00;97687.47;4996704;28;20042;-71
2023/12/31 01:29:03;;;;;;;5.60;1.60;;;;;;;6.51;100.00;97675.63;5007247;28;20567;-72
2023/12/31 01:31:29;;;;;;;5.10;1.60;;;;;;;6.46;100.00;97668.16;5007817;28;20061;-71
2023/12/31 01:33:56;;;;;;;4.47;1.23;;;;;;;6.56;100.00;97684.75;5001208;28;20053;-71
2023/12/31 01:36:25;;;;;;;2.72;1.00;;;;;;;6.58;100.00;97680.28;5012309;28;20053;-71
2023/12/31 01:38:51;;;;;;;2.25;1.20;;;;;;;6.55;100.00;97671.88;5011406;28;20057;-71
2023/12/31 01:41:18;;;;;;;3.60;1.38;;;;;;;6.58;100.00;97689.84;5011298;28;20058;-71
2023/12/31 01:43:45;;;;;;;2.47;1.20;;;;;;;6.59;100.00;97694.94;5013862;28;20058;-71
2023/12/31 01:46:25;;;;;;;3.22;1.10;;;;;;;6.40;100.00;97682.41;5031505;28;20431;-71
2023/12/31 01:48:53;;;;;;;2.35;1.20;;;;;;;6.44;100.00;97688.22;5029350;28;20056;-73
2023/12/31 01:51:20;;;;;;;4.05;1.17;;;;;;;6.47;100.00;97682.81;5013639;28;20099;-71
2023/12/31 01:53:47;;;;;;;3.65;1.33;;;;;;;6.42;100.00;97674.50;5012122;28;20057;-73
2023/12/31 01:56:14;;;;;;;3.90;1.35;;;;;;;6.39;100.00;97675.56;5031394;28;20474;-73
2023/12/31 01:58:42;;;;;;;3.55;1.30;;;;;;;6.39;100.00;97678.16;5011669;28;20049;-73
2023/12/31 02:01:09;;;;;;;2.47;1.23;;;;;;;6.43;100.00;97681.38;4989315;28;20119;-71
2023/12/31 02:03:36;;;;;;;4.68;1.23;;;;;;;6.37;100.00;97666.19;5019183;28;20165;-71
2023/12/31 02:06:03;;;;;;;3.35;1.20;;;;;;;6.42;100.00;97670.13;5017773;28;20516;-71
2023/12/31 02:08:30;;;;;;;3.65;1.27;;;;;;;6.39;100.00;97665.16;5010888;28;20507;-71
2023/12/31 02:10:56;;;;;;;4.85;1.55;;;;;;;6.33;100.00;97662.16;5018048;28;20408;-71
2023/12/31 02:13:23;;;;;;;5.93;1.77;;;;;;;6.31;100.00;97664.84;5029292;28;20217;-71
2023/12/31 02:15:52;;;;;;;2.70;1.27;;;;;;;6.25;100.00;97670.47;5015831;28;20045;-71
2023/12/31 02:18:18;;;;;;;3.85;1.40;;;;;;;6.13;100.00;97677.34;4997114;28;20054;-71
2023/12/31 02:20:45;;;;;;;3.90;1.88;;;;;;;6.25;100.00;97670.47;5009763;28;20069;-71
2023/12/31 02:23:12;;;;;;;7.45;1.67;;;;;;;6.31;100.00;97677.03;5013271;28;20172;-71
2023/12/31 02:25:43;;;;;;;5.75;1.30;;;;;;;6.31;100.00;97671.81;5000498;28;20346;-71
2023/12/31 02:28:14;;;;;;;5.90;1.63;;;;;;;6.35;100.00;97665.47;4993114;28;20084;-72
2023/12/31 02:30:40;;;;;;;5.35;1.50;;;;;;;6.32;100.00;97655.28;5015615;28;20399;-72
2023/12/31 02:33:07;;;;;;;5.18;1.83;;;;;;;6.26;100.00;97653.94;5006672;28;20066;-71
2023/12/31 02:35:34;;;;;;;6.53;1.48;;;;;;;6.29;100.00;97658.94;5008075;28;20474;-71
2023/12/31 02:38:01;;;;;;;6.70;1.95;;;;;;;6.32;100.00;97656.13;5014009;28;20399;-71
2023/12/31 02:40:27;;;;;;;4.75;1.50;;;;;;;6.39;100.00;97646.97;5010591;28;20056;-71
2023/12/31 02:42:54;;;;;;;3.92;1.48;;;;;;;6.26;100.00;97646.16;5009845;28;20057;-71
2023/12/31 02:45:21;;;;;;;5.55;1.30;;;;;;;6.36;100.00;97643.75;5010302;28;20054;-71
2023/12/31 02:47:47;;;;;;;4.97;1.60;;;;;;;6.30;100.00;97641.56;5010574;28;20061;-71
2023/12/31 02:50:14;;;;;;;5.30;1.40;;;;;;;6.31;100.00;97649.25;5009771;28;20046;-71
2023/12/31 02:52:41;;;;;;;6.93;2.03;;;;;;;6.28;100.00;97636.47;5011413;28;20487;-71
2023/12/31 02:55:07;;;;;;;5.50;1.50;;;;;;;6.33;100.00;97621.41;5011946;28;20710;-71
2023/12/31 02:57:34;;;;;;;4.90;1.60;;;;;;;6.39;100.00;97618.38;5002979;28;20453;-71
2023/12/31 03:00:01;;;;;;;5.18;1.58;;;;;;;6.36;100.00;97623.78;5006504;28;20129;-71
2023/12/31 03:02:27;;;;;;;4.70;1.35;;;;;;;6.38;100.00;97613.28;5017072;28;20347;-71
2023/12/31 03:04:54;;;;;;;4.55;1.40;;;;;;;6.32;100.00;97613.69;4996798;28;20053;-71
2023/12/31 03:07:21;;;;;;;4.55;1.65;;;;;;;6.35;100.00;97613.50;4994511;28;20050;-71
2023/12/31 03:09:47;;;;;;;2.97;1.30;;;;;;;6.23;100.00;97577.06;5021117;28;20053;-71
2023/12/31 03:12:14;;;;;;;4.40;1.50;;;;;;;6.35;100.00;97597.91;5021087;28;20423;-72
2023/12/31 03:14:41;;;;;;;4.25;1.65;;;;;;;6.27;100.00;97595.84;5009674;28;20050;-72
2023/12/31 03:17:07;;;;;;;3.85;1.63;;;;;;;6.38;100.00;97603.72;5008635;28;20058;-71
2023/12/31 03:19:35;;;;;;;4.00;1.63;;;;;;;6.47;100.00;97634.25;5001883;28;20053;-71
2023/12/31 03:22:03;;;;;;;8.00;2.30;;;;;;;6.54;100.00;97637.25;5009631;28;20092;-71
2023/12/31 03:24:31;;;;;;;4.72;1.67;;;;;;;6.58;100.00;97636.09;4983708;28;20053;-71
2023/12/31 03:26:57;;;;;;;4.00;1.40;;;;;;;6.62;100.00;97639.31;5016244;28;20137;-71
2023/12/31 03:29:24;;;;;;;5.10;1.38;;;;;;;6.57;100.00;97641.41;5006074;28;20056;-71
2023/12/31 03:31:50;;;;;;;7.60;1.92;;;;;;;6.43;100.00;97622.41;4998376;28;20507;-72
2023/12/31 03:34:17;;;;;;;6.05;1.75;;;;;;;6.54;100.00;97621.66;5012597;28;20065;-72
2023/12/31 03:36:44;;;;;;;6.55;1.58;;;;;;;6.54;100.00;97613.03;5009530;28;20049;-71
2023/12/31 03:39:11;;;;;;;4.93;1.55;;;;;;;6.51;100.00;97598.47;5009306;28;20058;-71
2023/12/31 03:41:37;;;;;;;2.35;1.10;;;;;;;6.56;100.00;97593.78;5008598;28;20046;-72
2023/12/31 03:44:04;;;;;;;5.53;1.50;;;;;;;6.58;100.00;97594.50;5009946;28;20376;-71
2023/12/31 03:46:31;;;;;;;5.40;1.75;;;;;;;6.56;100.00;97591.19;4999647;28;20049;-72
2023/12/31 03:48:57;;;;;;;4.03;1.63;;;;;;;6.55;100.00;97581.75;5019489;28;20042;-71
2023/12/31 03:51:24;;;;;;;4.22;1.52;;;;;;;6.44;100.00;97560.88;5006275;28;20087;-71
2023/12/31 03:53:51;;;;;;;6.22;1.90;;;;;;;6.59;100.00;97564.97;5009147;28;20057;-71
2023/12/31 03:56:17;;;;;;;6.50;1.77;;;;;;;6.72;100.00;97571.91;4994431;28;20054;-71
2023/12/31 03:58:44;;;;;;;6.55;1.70;;;;;;;6.44;100.00;97543.50;5009293;28;20399;-71
2023/12/31 04:01:11;;;;;;;5.53;1.65;;;;;;;6.66;100.00;97560.16;5015965;28;20093;-72
2023/12/31 04:03:39;;;;;;;5.18;1.73;;;;;;;6.62;100.00;97558.72;4982502;28;20096;-71
2023/12/31 04:06:09;;;;;;;5.18;1.60;;;;;;;6.57;100.00;97548.66;5009784;28;20641;-72
2023/12/31 04:08:36;;;;;;;6.07;1.88;;;;;;;6.65;100.00;97556.72;5009400;28;20062;-71
2023/12/31 04:11:03;;;;;;;4.03;1.40;;;;;;;6.69;100.00;97559.09;5009721;28;20077;-71
2023/12/31 04:13:29;;;;;;;4.35;1.70;;;;;;;6.58;100.00;97546.88;5008849;28;20479;-71
2023/12/31 04:15:56;;;;;;;5.88;1.77;;;;;;;6.61;100.00;97549.28;4991651;28;20058;-71
2023/12/31 04:18:23;;;;;;;6.28;1.98;;;;;;;6.61;100.00;97546.66;5008850;28;20064;-71
2023/12/31 04:20:50;;;;;;;5.57;1.80;;;;;;;6.54;100.00;97545.47;5013901;28;20084;-71
2023/12/31 04:23:16;;;;;;;5.18;1.98;;;;;;;6.53;100.00;97541.19;5018836;28;20045;-71
2023/12/31 04:25:43;;;;;;;4.88;1.92;;;;;;;6.52;100.00;97535.16;5023216;28;20483;-71
2023/12/31 04:28:10;;;;;;;8.25;1.70;;;;;;;6.62;100.00;97530.97;5016128;28;20045;-71
2023/12/31 04:30:40;;;;;;;7.70;1.90;;;;;;;6.60;100.00;97517.22;5018424;28;20453;-71
2023/12/31 04:33:07;;;;;;;8.07;1.90;;;;;;;6.57;100.00;97507.06;5007533;28;20460;-71
2023/12/31 04:35:34;;;;;;;6.45;1.65;;;;;;;6.70;100.00;97529.56;5020149;28;20421;-71
2023/12/31 04:38:00;;;;;;;7.15;1.80;;;;;;;6.63;100.00;97519.59;5012213;28;20050;-71
2023/12/31 04:40:27;;;;;;;5.70;1.85;;;;;;;6.67;100.00;97517.63;5009084;28;20057;-72
2023/12/31 04:42:54;;;;;;;5.13;1.90;;;;;;;6.69;100.00;97530.50;5000658;28;20057;-72
2023/12/31 04:45:20;;;;;;;6.30;1.98;;;;;;;6.69;100.00;97527.91;5005367;28;20050;-72
2023/12/31 04:47:47;;;;;;;4.00;1.50;;;;;;;6.69;100.00;97525.31;5003381;28;20050;-72
2023/12/31 04:50:14;;;;;;;6.63;1.77;;;;;;;6.62;100.00;97519.72;5004084;28;20088;-72
2023/12/31 04:52:41;;;;;;;4.47;1.63;;;;;;;6.65;100.00;97514.31;5014302;28;20080;-71
2023/12/31 04:55:08;;;;;;;6.32;1.58;;;;;;;6.77;100.00;97525.59;5011833;28;20488;-71
2023/12/31 04:57:34;;;;;;;9.27;2.22;;;;;;;6.80;100.00;97530.56;5013547;28;20057;-73
2023/12/31 05:00:01;;;;;;;4.45;1.58;;;;;;;6.84;100.00;97532.81;5014083;28;20049;-71
2023/12/31 05:02:28;;;;;;;4.00;1.58;;;;;;;6.67;100.00;97498.59;5000210;28;20062;-73
2023/12/31 05:04:54;;;;;;;5.35;1.98;;;;;;;6.87;100.00;97518.78;5011075;28;20050;-72
2023/12/31 05:07:21;;;;;;;4.55;1.30;;;;;;;6.89;100.00;97511.69;5012299;28;20057;-72
2023/12/31 05:09:48;;;;;;;5.55;1.38;;;;;;;6.96;100.00;97512.88;5023227;28;20153;-72
2023/12/31 05:12:15;;;;;;;5.00;1.50;;;;;;;6.93;100.00;97510.50;5014366;28;20060;-72
2023/12/31 05:14:41;;;;;;;2.97;1.30;;;;;;;6.94;100.00;97501.78;5008243;28;20050;-72
2023/12/31 05:17:08;;;;;;;4.07;1.40;;;;;;;6.93;100.00;97501.88;5010304;28;20046;-72
2023/12/31 05:19:35;;;;;;;3.97;1.30;;;;;;;6.91;100.00;97511.56;5012063;28;20052;-72
2023/12/31 05:22:01;;;;;;;4.13;1.50;;;;;;;6.92;100.00;97510.63;4997831;28;20058;-72
2023/12/31 05:24:28;;;;;;;3.47;1.38;;;;;;;6.94;100.00;97498.31;4994881;28;20062;-72
2023/12/31 05:26:55;;;;;;;4.72;1.50;;;;;;;6.95;100.00;97498.22;4999153;28;20042;-72
2023/12/31 05:29:21;;;;;;;4.07;1.40;;;;;;;7.01;100.00;97500.38;5008163;28;20388;-72
2023/12/31 05:31:48;;;;;;;4.32;1.65;;;;;;;7.01;100.00;97499.50;4992041;28;20050;-72
2023/12/31 05:34:14;;;;;;;3.67;1.35;;;;;;;7.02;100.00;97496.81;5029590;28;20145;-72
2023/12/31 05:36:41;;;;;;;7.90;1.50;;;;;;;7.04;100.00;97491.50;5009212;28;20081;-72
2023/12/31 05:39:08;;;;;;;6.10;1.58;;;;;;;7.03;100.00;97471.66;5013119;28;20058;-72
2023/12/31 05:41:36;;;;;;;2.90;1.20;;;;;;;7.05;100.00;97472.34;5011156;28;20052;-72
2023/12/31 05:44:03;;;;;;;3.35;1.48;;;;;;;7.02;100.00;97467.38;5023862;28;20063;-72
2023/12/31 05:46:30;;;;;;;7.28;1.60;;;;;;;7.00;100.00;97467.47;5024418;28;20460;-72
2023/12/31 05:48:57;;;;;;;5.05;1.90;;;;;;;6.94;100.00;97465.34;4994066;28;20119;-72
2023/12/31 05:51:24;;;;;;;4.13;1.50;;;;;;;7.09;100.00;97460.75;5010059;28;20050;-72
2023/12/31 05:53:51;;;;;;;8.45;2.55;;;;;;;7.10;100.00;97458.97;5011472;28;20053;-72
2023/12/31 05:56:17;;;;;;;7.45;2.60;;;;;;;7.09;100.00;97460.75;4993713;28;20054;-72
2023/12/31 05:58:46;;;;;;;7.78;1.90;;;;;;;7.24;100.00;97458.75;5010665;28;20207;-73
2023/12/31 06:01:13;;;;;;;14.48;2.55;;;;;;;7.41;100.00;97481.72;5004667;28;20396;-72
2023/12/31 06:03:40;;;;;;;15.25;2.78;;;;;;;7.51;100.00;97468.84;5016083;28;20058;-72
2023/12/31 06:06:07;;;;;;;14.77;2.60;;;;;;;7.65;100.00;97485.16;5022443;28;20136;-72
2023/12/31 06:08:34;;;;;;;9.30;2.28;;;;;;;7.71;100.00;97490.72;5019269;28;20058;-72
2023/12/31 06:11:01;;;;;;;8.98;1.88;;;;;;;7.70;100.00;97489.09;5010766;28;20060;-72
2023/12/31 06:13:27;;;;;;;16.25;3.45;;;;;;;7.60;100.00;97488.13;5025465;28;20399;-72
2023/12/31 06:15:54;;;;;;;7.05;1.98;;;;;;;7.73;100.00;97488.00;5007462;28;20561;-72
2023/12/31 06:18:20;;;;;;;9.82;1.98;;;;;;;7.74;100.00;97479.25;5016848;28;20068;-72
2023/12/31 06:20:47;;;;;;;7.70;2.10;;;;;;;7.59;100.00;97484.69;5011181;28;20077;-72
2023/12/31 06:23:14;;;;;;;8.90;2.15;;;;;;;7.60;100.00;97488.13;5023714;28;20071;-72
2023/12/31 06:25:41;;;;;;;11.15;2.83;;;;;;;7.76;100.00;97492.97;5023812;28;20484;-72
2023/12/31 06:28:07;;;;;;;10.55;2.00;;;;;;;7.74;100.00;97487.88;5009893;28;20476;-72
2023/12/31 06:30:34;;;;;;;11.70;2.42;;;;;;;7.65;100.00;97491.22;5009765;28;20056;-72
2023/12/31 06:33:01;;;;;;;7.03;1.95;;;;;;;7.81;100.00;97498.66;5010610;28;20049;-72
2023/12/31 06:35:28;;;;;;;9.93;1.85;;;;;;;7.72;100.00;97473.31;4993318;28;20104;-72
2023/12/31 06:37:54;;;;;;;9.38;1.75;;;;;;;7.88;100.00;97489.41;5010735;28;20041;-72
2023/12/31 06:40:21;;;;;;;5.78;1.85;;;;;;;7.88;100.00;97475.53;5008246;28;20505;-72
2023/12/31 06:42:48;;;;;;;8.65;2.17;;;;;;;7.81;100.00;97462.19;4994888;28;20056;-72
2023/12/31 06:45:14;;;;;;;7.40;2.08;;;;;;;7.91;100.00;97477.91;4997133;28;20108;-72
2023/12/31 06:47:41;;;;;;;9.48;2.08;;;;;;;7.83;100.00;97486.34;4990904;28;20065;-72
2023/12/31 06:50:10;;;;;;;7.53;2.10;;;;;;;7.87;100.00;97479.94;5000849;28;20073;-72
2023/12/31 06:52:37;;;;;;;9.00;2.05;;;;;;;7.87;100.00;97481.72;4996241;28;20476;-72
2023/12/31 06:55:04;;;;;;;11.95;2.45;;;;;;;7.74;100.00;97476.66;5006590;28;20056;-72
2023/12/31 06:57:30;;;;;;;8.90;1.85;;;;;;;7.74;100.00;97467.06;5007775;28;20050;-72
2023/12/31 06:59:57;;;;;;;18.17;3.28;;;;;;;7.64;100.00;97473.09;5001403;28;20061;-72
2023/12/31 07:02:25;;;;;;;9.10;1.95;;;;;;;7.68;100.00;97470.13;5016991;28;20049;-72
2023/12/31 07:04:52;;;;;;;8.10;1.52;;;;;;;7.80;100.00;97479.59;5002600;28;20046;-72
2023/12/31 07:07:19;;;;;;;13.85;2.05;;;;;;;7.77;100.00;97479.84;5000306;28;20050;-72
2023/12/31 07:09:46;;;;;;;4.32;1.40;;;;;;;7.76;100.00;97475.56;4998116;28;20137;-72
2023/12/31 07:12:13;;;;;;;6.60;1.45;;;;;;;7.88;100.00;97483.38;4979502;28;20046;-72
2023/12/31 07:14:39;;;;;;;7.15;1.67;;;;;;;7.90;100.00;97477.09;4983366;28;20056;-72
2023/12/31 07:17:06;;;;;;;17.13;2.20;;;;;;;7.84;100.00;97463.72;4997132;28;20042;-72
2023/12/31 07:19:32;;;;;;;15.93;2.33;;;;;;;7.78;100.00;97462.44;5006076;28;20046;-72
2023/12/31 07:21:59;;;;;;;9.27;1.40;;;;;;;7.91;100.00;97467.50;5003556;28;20145;-72
2023/12/31 07:24:26;;;;;;;9.63;1.75;;;;;;;7.80;100.00;97463.97;5001139;28;20073;-72
2023/12/31 07:26:53;;;;;;;5.85;1.40;;;;;;;7.80;100.00;97447.50;5008699;28;20746;-73
2023/12/31 07:29:20;;;;;;;6.90;1.90;;;;;;;7.80;100.00;97453.53;5011149;28;20061;-73
2023/12/31 07:31:46;;;;;;;6.05;1.70;;;;;;;7.77;100.00;97450.34;5005676;28;20046;-73
2023/12/31 07:34:15;;;;;;;8.45;1.83;;;;;;;7.93;100.00;97448.22;5024139;28;20060;-72
2023/12/31 07:36:42;;;;;;;10.80;1.75;;;;;;;7.80;100.00;97442.31;4999788;28;20057;-72
2023/12/31 07:39:09;;;;;;;8.05;1.80;;;;;;;7.69;100.00;97440.53;5001701;28;20058;-73
2023/12/31 07:41:36;;;;;;;6.55;1.58;;;;;;;7.84;100.00;97445.50;5007824;28;20054;-73
2023/12/31 07:44:03;;;;;;;5.35;1.42;;;;;;;7.76;100.00;97451.31;5001800;28;20050;-72
2023/12/31 07:46:30;;;;;;;7.93;1.60;;;;;;;7.72;100.00;97448.13;5005313;28;20046;-72
2023/12/31 07:48:56;;;;;;;9.00;2.25;;;;;;;7.82;100.00;97447.41;5001834;28;20054;-72
2023/12/31 07:51:24;;;;;;;11.77;2.03;;;;;;;7.70;100.00;97454.38;4991708;28;20054;-72
2023/12/31 07:53:51;;;;;;;7.38;1.98;;;;;;;7.75;100.00;97447.03;5009575;28;20381;-72
2023/12/31 07:56:18;;;;;;;6.72;1.77;;;;;;;7.56;100.00;97419.00;5023306;28;20486;-72
2023/12/31 07:58:45;;;;;;;6.07;1.55;;;;;;;7.70;100.00;97454.38;5021411;28;20050;-72
2023/12/31 08:01:12;;;;;;;6.03;1.60;;;;;;;7.72;100.00;97447.28;5009028;28;20060;-72
2023/12/31 08:03:39;;;;;;;5.82;1.60;;;;;;;7.73;100.00;97446.34;5007381;28;20054;-72
2023/12/31 08:06:05;;;;;;;5.90;1.38;;;;;;;7.75;100.00;97431.41;4997995;28;20085;-71
2023/12/31 08:08:32;;;;;;;5.05;1.48;;;;;;;7.90;100.00;97445.03;4998783;28;20531;-72
2023/12/31 08:10:59;;;;;;;3.20;1.27;;;;;;;7.89;100.00;97448.56;5008629;28;20169;-71
2023/12/31 08:13:29;;;;;;;6.22;1.60;;;;;;;7.77;100.00;97459.00;4993975;28;20058;-72
2023/12/31 08:15:56;;;;;;;4.43;1.33;;;;;;;7.79;100.00;97457.09;4990398;28;20042;-72
2023/12/31 08:18:23;;;;;;;5.72;1.77;;;;;;;7.75;100.00;97458.28;5003563;28;20115;-71
2023/12/31 08:20:49;;;;;;;5.63;1.60;;;;;;;7.81;100.00;97459.59;5001792;28;20057;-73
2023/12/31 08:23:16;;;;;;;6.60;1.42;;;;;;;7.76;100.00;97459.13;5004989;28;20050;-71
2023/12/31 08:25:43;;;;;;;5.55;1.60;;;;;;;7.75;100.00;97467.88;5009796;28;20053;-71
2023/12/31 08:28:10;;;;;;;11.85;2.33;;;;;;;7.70;100.00;97463.03;5008971;28;20062;-71
2023/12/31 08:30:37;;;;;;;6.13;1.40;;;;;;;7.74;100.00;97456.63;5008402;28;20547;-71
2023/12/31 08:33:04;;;;;;;6.68;1.20;;;;;;;7.84;100.00;97463.72;5007254;28;20057;-71
2023/12/31 08:35:31;;;;;;;6.53;1.50;;;;;;;7.85;100.00;97462.78;5006316;28;20124;-72
2023/12/31 08:37:58;;;;;;;3.80;1.20;;;;;;;7.84;100.00;97454.13;5008411;28;20454;-72
2023/12/31 08:40:24;;;;;;;4.95;1.40;;;;;;;7.85;100.00;97447.16;4991463;28;20561;-71
2023/12/31 08:42:51;;;;;;;4.63;1.55;;;;;;;7.90;100.00;97451.06;5016338;28;20495;-71
2023/12/31 08:45:18;;;;;;;3.97;1.20;;;;;;;7.92;100.00;97454.34;5020477;28;20050;-72
2023/12/31 08:47:45;;;;;;;2.00;1.10;;;;;;;7.92;100.00;97453.53;5002774;28;20488;-72
2023/12/31 08:50:12;;;;;;;3.95;1.15;;;;;;;7.85;100.00;97436.75;5006177;28;20068;-71
2023/12/31 08:52:44;;;;;;;4.43;1.33;;;;;;;7.90;100.00;97445.84;4978664;28;20058;-72
2023/12/31 08:55:11;;;;;;;3.43;1.00;;;;;;;7.85;100.00;97447.97;4992272;28;20389;-73
2023/12/31 08:57:48;;;;;;;3.95;1.20;;;;;;;7.86;100.00;97446.19;4989660;28;20808;-72
2023/12/31 09:00:18;;;;;;;5.72;1.50;;;;;;;7.75;100.00;97437.44;5003225;28;20073;-73
2023/12/31 09:02:46;;;;;;;6.80;1.92;;;;;;;7.68;100.00;97433.66;4988578;28;20580;-73
2023/12/31 09:05:13;;;;;;;6.25;1.45;;;;;;;7.76;100.00;97446.94;5003103;28;20054;-73
2023/12/31 09:07:40;;;;;;;4.00;1.40;;;;;;;7.82;100.00;97450.81;4993579;28;20046;-72
2023/12/31 09:10:08;;;;;;;2.47;1.10;;;;;;;7.80;100.00;97455.31;5007475;28;20419;-72
2023/12/31 09:12:35;;;;;;;6.45;1.65;;;;;;;7.80;100.00;97453.53;4999412;28;20054;-72
2023/12/31 09:15:03;;;;;;;5.95;1.65;;;;;;;7.78;100.00;97459.81;4998193;28;20058;-72
2023/12/31 09:17:30;;;;;;;3.90;1.20;;;;;;;7.65;100.00;97436.53;4998446;28;20073;-73
2023/12/31 09:20:02;;;;;;;4.80;1.30;;;;;;;7.82;100.00;97460.41;4993966;28;20054;-72
2023/12/31 09:22:29;;;;;;;5.30;1.30;;;;;;;7.77;100.00;97466.81;5000486;28;20054;-73
2023/12/31 09:24:56;;;;;;;4.32;1.30;;;;;;;7.83;100.00;97465.50;4975599;28;20046;-72
2023/12/31 09:27:23;;;;;;;3.65;1.73;;;;;;;7.81;100.00;97457.00;4998965;28;20428;-72
2023/12/31 09:29:49;;;;;;;4.05;1.65;;;;;;;7.79;100.00;97453.66;5004292;28;20050;-73
2023/12/31 09:32:16;;;;;;;5.32;1.35;;;;;;;7.89;100.00;97459.81;4985002;28;20046;-72
2023/12/31 09:34:43;;;;;;;3.30;1.25;;;;;;;7.90;100.00;97452.84;5009594;28;20066;-72
2023/12/31 09:37:11;;;;;;;3.78;1.60;;;;;;;7.92;100.00;97454.34;4993203;28;20631;-72
2023/12/31 09:39:38;;;;;;;2.65;1.42;;;;;;;7.93;100.00;97455.19;5004106;28;20056;-72
2023/12/31 09:42:22;;;;;;;3.50;1.25;;;;;;;7.96;100.00;97457.53;4991809;28;20367;-72
2023/12/31 09:44:50;;;;;;;2.30;1.25;;;;;;;7.95;100.00;97453.28;5008162;28;20060;-72
2023/12/31 09:47:18;;;;;;;6.72;2.22;;;;;;;7.89;100.00;97446.78;5010882;28;20528;-72
2023/12/31 09:49:45;;;;;;;5.70;1.52;;;;;;;7.91;100.00;97436.25;4994751;28;20058;-72
2023/12/31 09:52:13;;;;;;;5.95;2.08;;;;;;;7.91;100.00;97438.84;5002222;28;20056;-72
2023/12/31 09:54:41;;;;;;;3.60;1.33;;;;;;;7.97;100.00;97438.38;5008155;28;20440;-72
2023/12/31 09:57:08;;;;;;;3.50;1.45;;;;;;;7.95;100.00;97432.44;4986578;28;20053;-72
2023/12/31 09:59:42;;;;;;;4.63;1.67;;;;;;;7.85;100.00;97415.91;5003179;28;20051;-72
2023/12/31 10:02:18;;;;;;;5.68;1.48;;;;;;;7.94;100.00;97436.00;4992057;28;20067;-72
2023/12/31 10:04:47;;;;;;;5.97;1.60;;;;;;;7.94;100.00;97433.41;5000460;28;20050;-72
2023/12/31 10:07:14;;;;;;;4.22;1.48;;;;;;;7.89;100.00;97438.97;5002901;28;20535;-72
2023/12/31 10:09:42;;;;;;;4.55;1.60;;;;;;;7.94;100.00;97434.22;5004414;28;20132;-73
2023/12/31 10:12:10;;;;;;;4.95;1.73;;;;;;;7.98;100.00;97434.81;5000765;28;20445;-72
2023/12/31 10:14:37;;;;;;;4.22;1.45;;;;;;;7.99;100.00;97442.50;5002200;28;20407;-72
2023/12/31 10:17:08;;;;;;;5.18;1.40;;;;;;;7.97;100.00;97438.38;4990816;28;20042;-72
2023/12/31 10:19:34;;;;;;;3.35;1.30;;;;;;;7.94;100.00;97436.81;5013363;28;20538;-72
2023/12/31 10:22:05;;;;;;;3.08;1.23;;;;;;;8.07;100.00;97444.47;4991380;28;20101;-73
2023/12/31 10:24:31;;;;;;;5.63;1.80;;;;;;;8.00;100.00;97440.72;5000182;28;20503;-72
2023/12/31 10:27:03;;;;;;;7.95;1.75;;;;;;;8.02;100.00;97430.16;5000925;28;20065;-72
2023/12/31 10:29:31;;;;;;;4.55;1.63;;;;;;;7.88;100.00;97406.06;5009082;28;20050;-72
2023/12/31 10:31:58;;;;;;;4.70;1.60;;;;;;;7.96;100.00;97406.25;4985140;28;20050;-73
2023/12/31 10:34:25;;;;;;;6.68;1.75;;;;;;;8.19;100.00;97440.06;4992918;28;20472;-72
2023/12/31 10:37:05;;;;;;;7.65;1.88;;;;;;;8.17;100.00;97424.56;4997273;28;20138;-72
2023/12/31 10:39:34;;;;;;;5.50;1.60;;;;;;;8.25;100.00;97433.53;4999255;28;20054;-74
2023/12/31 10:42:05;;;;;;;4.80;1.52;;;;;;;8.30;100.00;97441.81;4997959;28;20408;-72
2023/12/31 10:44:34;;;;;;;10.13;1.70;;;;;;;8.28;100.00;97431.50;5004533;28;21892;-72
2023/12/31 10:47:06;;;;;;;6.43;1.50;;;;;;;8.36;100.00;97436.13;5001967;28;20038;-72
2023/12/31 10:49:34;;;;;;;6.03;1.50;;;;;;;8.30;100.00;97421.78;4978941;28;20074;-72
2023/12/31 10:52:03;;;;;;;4.68;1.70;;;;;;;8.36;100.00;97439.53;5001942;28;20054;-72
2023/12/31 10:54:42;;;;;;;6.75;1.88;;;;;;;8.42;100.00;97448.69;4992372;28;20060;-72
2023/12/31 10:57:09;;;;;;;4.78;1.65;;;;;;;8.44;100.00;97441.56;4997718;28;20049;-72
2023/12/31 10:59:39;;;;;;;7.63;2.50;;;;;;;8.40;100.00;97434.91;5005582;28;20050;-72
2023/12/31 11:02:16;;;;;;;6.82;1.55;;;;;;;8.46;100.00;97431.00;5007955;28;20058;-72
2023/12/31 11:04:46;;;;;;;6.55;1.83;;;;;;;8.50;100.00;97435.03;4997143;28;20510;-72
2023/12/31 11:07:16;;;;;;;7.32;1.92;;;;;;;8.49;100.00;97430.75;5008815;28;20108;-72
2023/12/31 11:09:46;;;;;;;6.00;1.90;;;;;;;8.47;100.00;97423.06;4996794;28;20054;-72
2023/12/31 11:12:14;;;;;;;6.40;1.60;;;;;;;8.51;100.00;97431.47;5006162;28;20045;-72
2023/12/31 11:14:46;;;;;;;10.88;1.88;;;;;;;8.53;100.00;97430.41;5000069;28;20158;-72
2023/12/31 11:17:41;;;;;;;5.60;1.80;;;;;;;8.56;100.00;97424.09;5000298;28;20097;-73
2023/12/31 11:20:45;;;;;;;8.73;1.80;;;;;;;8.60;100.00;97422.06;4993075;28;20046;-72
2023/12/31 11:23:35;;;;;;;5.50;1.50;;;;;;;8.60;100.00;97429.88;4992978;28;20081;-72
2023/12/31 11:26:02;;;;;;;5.13;1.83;;;;;;;8.55;100.00;97417.22;4999118;28;20409;-72
2023/12/31 11:28:29;;;;;;;6.50;1.73;;;;;;;8.58;100.00;97419.56;5009545;28;20045;-72
2023/12/31 11:30:58;;;;;;;8.68;1.90;;;;;;;8.54;100.00;97420.78;5010310;28;20096;-72
2023/12/31 11:33:33;;;;;;;8.73;2.60;;;;;;;8.62;100.00;97430.56;5009751;28;20636;-73